createdAt,value
2022-08-09T00:00:00.264Z,16.82
2022-08-09T00:02:29.019Z,16.78
2022-08-09T00:05:03.337Z,16.74
2022-08-09T00:07:45.372Z,16.84
2022-08-09T00:10:14.392Z,16.78
2022-08-09T00:12:45.778Z,16.79
2022-08-09T00:15:13.841Z,16.91
2022-08-09T00:18:05.381Z,16.88
2022-08-09T00:20:31.530Z,16.86
2022-08-09T00:23:07.796Z,16.77
2022-08-09T00:25:37.499Z,16.77
2022-08-09T00:28:06.480Z,16.73
2022-08-09T00:30:33.986Z,16.72
2022-08-09T00:33:01.447Z,16.68
2022-08-09T00:35:43.004Z,16.65
2022-08-09T00:38:12.586Z,16.57
2022-08-09T00:40:40.522Z,16.57
2022-08-09T00:44:11.923Z,16.51
2022-08-09T00:46:09.420Z,16.50
2022-08-09T00:48:38.029Z,16.60
2022-08-09T00:51:11.911Z,16.63
2022-08-09T00:53:40.635Z,16.64
2022-08-09T00:56:10.038Z,16.54
2022-08-09T00:58:37.831Z,16.42
2022-08-09T01:01:15.808Z,16.38
2022-08-09T01:03:54.923Z,16.31
2022-08-09T01:06:35.121Z,16.14
2022-08-09T01:09:26.193Z,16.02
2022-08-09T01:12:13.055Z,15.90
2022-08-09T01:14:45.940Z,15.91
2022-08-09T01:17:24.522Z,15.87
2022-08-09T01:20:02.696Z,15.79
2022-08-09T01:23:02.087Z,15.57
2022-08-09T01:25:48.978Z,15.63
2022-08-09T01:28:22.304Z,15.46
2022-08-09T01:30:53.303Z,15.58
2022-08-09T01:33:24.867Z,15.69
2022-08-09T01:36:00.507Z,15.63
2022-08-09T01:38:30.589Z,15.58
2022-08-09T01:41:05.548Z,15.66
2022-08-09T01:43:50.827Z,15.66
2022-08-09T01:46:25.152Z,15.67
2022-08-09T01:48:57.294Z,15.70
2022-08-09T01:51:32.349Z,15.51
2022-08-09T01:54:04.218Z,15.66
2022-08-09T01:56:32.688Z,15.58
2022-08-09T01:59:07.275Z,15.49
2022-08-09T02:01:57.844Z,15.48
2022-08-09T02:04:27.244Z,15.49
2022-08-09T02:07:18.323Z,15.48
2022-08-09T02:10:01.417Z,15.48
2022-08-09T02:12:34.832Z,15.41
2022-08-09T02:15:07.900Z,15.31
2022-08-09T02:18:09.862Z,15.30
2022-08-09T02:20:32.595Z,15.29
2022-08-09T02:23:05.976Z,15.28
2022-08-09T02:25:52.486Z,15.48
2022-08-09T02:28:24.383Z,15.23
2022-08-09T02:30:59.690Z,15.31
2022-08-09T02:33:37.818Z,15.37
2022-08-09T02:36:26.373Z,15.30
2022-08-09T02:38:56.266Z,15.23
2022-08-09T02:41:27.049Z,15.20
2022-08-09T02:43:59.062Z,15.16
2022-08-09T02:46:30.637Z,15.00
2022-08-09T02:49:02.560Z,14.92
2022-08-09T02:51:40.127Z,14.90
2022-08-09T02:54:10.694Z,14.79
2022-08-09T02:56:43.756Z,14.68
2022-08-09T02:59:26.557Z,14.68
2022-08-09T03:02:11.923Z,14.73
2022-08-09T03:04:40.697Z,14.77
2022-08-09T03:07:14.274Z,14.75
2022-08-09T03:09:43.727Z,14.54
2022-08-09T03:12:23.989Z,14.61
2022-08-09T03:14:52.907Z,14.64
2022-08-09T03:17:27.085Z,14.68
2022-08-09T03:20:02.974Z,14.54
2022-08-09T03:22:42.069Z,14.50
2022-08-09T03:25:25.946Z,14.55
2022-08-09T03:28:03.200Z,14.62
2022-08-09T03:30:33.912Z,14.71
2022-08-09T03:33:17.412Z,14.94
2022-08-09T03:36:14.021Z,14.71
2022-08-09T03:38:35.944Z,14.64
2022-08-09T03:41:05.075Z,14.71
2022-08-09T03:43:33.509Z,14.70
2022-08-09T03:46:20.756Z,14.70
2022-08-09T03:48:57.863Z,14.84
2022-08-09T03:51:55.622Z,14.68
2022-08-09T03:54:15.593Z,14.75
2022-08-09T03:56:44.789Z,14.75
2022-08-09T03:59:20.925Z,14.65
2022-08-09T04:01:59.323Z,14.63
2022-08-09T04:04:36.085Z,14.65
2022-08-09T04:07:06.602Z,14.72
2022-08-09T04:09:48.392Z,14.80
2022-08-09T04:12:44.503Z,14.62
2022-08-09T04:15:29.309Z,14.68
2022-08-09T04:18:00.501Z,14.79
2022-08-09T04:20:29.794Z,14.83
2022-08-09T04:23:00.379Z,14.72
2022-08-09T04:25:29.807Z,14.82
2022-08-09T04:28:02.405Z,14.93
2022-08-09T04:30:31.629Z,14.98
2022-08-09T04:33:01.739Z,15.09
2022-08-09T04:35:32.821Z,15.21
2022-08-09T04:38:03.762Z,15.06
2022-08-09T04:40:48.153Z,15.09
2022-08-09T04:43:21.746Z,15.17
2022-08-09T04:45:53.913Z,15.20
2022-08-09T04:48:21.962Z,15.40
2022-08-09T04:50:52.727Z,15.45
2022-08-09T04:53:20.178Z,15.55
2022-08-09T04:55:58.433Z,15.79
2022-08-09T04:58:27.502Z,15.83
2022-08-09T05:00:55.220Z,15.99
2022-08-09T05:03:40.946Z,16.28
2022-08-09T05:06:25.857Z,16.37
2022-08-09T05:09:00.689Z,16.58
2022-08-09T05:11:32.453Z,16.75
2022-08-09T05:14:05.820Z,16.99
2022-08-09T05:16:34.178Z,17.01
2022-08-09T05:19:25.810Z,17.30
2022-08-09T05:21:56.452Z,17.29
2022-08-09T05:24:24.422Z,17.47
2022-08-09T05:26:51.981Z,17.38
2022-08-09T05:29:22.233Z,17.52
2022-08-09T05:31:57.224Z,17.84
2022-08-09T05:34:31.100Z,17.92
2022-08-09T05:37:04.988Z,18.22
2022-08-09T05:39:36.393Z,18.33
2022-08-09T05:42:17.629Z,18.55
2022-08-09T05:44:50.766Z,18.59
2022-08-09T05:47:19.117Z,18.79
2022-08-09T05:50:24.511Z,18.89
2022-08-09T05:52:35.645Z,19.08
2022-08-09T05:55:08.811Z,19.14
2022-08-09T05:57:51.115Z,19.19
2022-08-09T06:00:25.091Z,19.24
2022-08-09T06:02:54.367Z,19.38
2022-08-09T06:05:30.915Z,19.14
2022-08-09T06:08:13.477Z,19.14
2022-08-09T06:10:46.551Z,19.42
2022-08-09T06:13:20.410Z,19.58
2022-08-09T06:15:51.562Z,19.87
2022-08-09T06:18:24.054Z,20.11
2022-08-09T06:20:54.538Z,20.18
2022-08-09T06:23:58.144Z,20.27
2022-08-09T06:26:15.318Z,20.39
2022-08-09T06:28:49.463Z,20.47
2022-08-09T06:31:16.887Z,20.73
2022-08-09T06:33:58.016Z,20.76
2022-08-09T06:36:27.273Z,21.01
2022-08-09T06:38:58.876Z,21.26
2022-08-09T06:41:55.824Z,21.40
2022-08-09T06:44:18.287Z,21.54
2022-08-09T06:46:48.133Z,21.68
2022-08-09T06:49:28.976Z,21.38
2022-08-09T06:52:05.455Z,21.01
2022-08-09T06:54:36.766Z,20.93
2022-08-09T06:57:06.630Z,20.86
2022-08-09T07:00:57.227Z,20.96
2022-08-09T07:02:29.499Z,21.22
2022-08-09T07:04:58.600Z,21.22
2022-08-09T07:08:00.910Z,21.42
2022-08-09T07:10:29.608Z,22.01
2022-08-09T07:12:59.360Z,22.54
2022-08-09T07:15:53.922Z,22.90
2022-08-09T07:18:15.140Z,23.07
2022-08-09T07:20:43.390Z,24.02
2022-08-09T07:23:18.689Z,25.06
2022-08-09T07:25:52.304Z,24.99
2022-08-09T07:28:28.981Z,24.95
2022-08-09T07:30:56.580Z,25.57
2022-08-09T07:33:24.051Z,25.75
2022-08-09T07:35:54.029Z,24.62
2022-08-09T07:38:23.481Z,24.74
2022-08-09T07:41:10.132Z,25.13
2022-08-09T07:43:49.620Z,25.43
2022-08-09T07:46:19.444Z,25.21
2022-08-09T07:48:59.083Z,25.07
2022-08-09T07:52:03.159Z,24.14
2022-08-09T07:54:15.770Z,24.48
2022-08-09T07:56:56.546Z,24.51
2022-08-09T07:59:34.735Z,24.59
2022-08-09T08:02:19.448Z,24.50
2022-08-09T08:04:48.745Z,24.36
2022-08-09T08:08:44.112Z,24.44
2022-08-09T08:10:10.482Z,24.59
2022-08-09T08:12:43.193Z,24.94
2022-08-09T08:15:13.840Z,25.00
2022-08-09T08:17:53.423Z,25.11
2022-08-09T08:20:27.309Z,25.13
2022-08-09T08:23:01.737Z,25.44
2022-08-09T08:25:44.516Z,25.64
2022-08-09T08:28:18.131Z,25.14
2022-08-09T08:30:52.934Z,25.51
2022-08-09T08:33:23.938Z,25.44
2022-08-09T08:36:00.463Z,25.86
2022-08-09T08:38:31.029Z,26.31
2022-08-09T08:40:59.140Z,26.78
2022-08-09T08:43:28.229Z,27.11
2022-08-09T08:46:03.932Z,26.86
2022-08-09T08:48:51.527Z,26.29
2022-08-09T08:51:19.964Z,26.23
2022-08-09T08:54:03.455Z,26.49
2022-08-09T08:56:34.538Z,26.81
2022-08-09T08:59:18.725Z,26.60
2022-08-09T09:01:53.290Z,26.49
2022-08-09T09:04:29.662Z,26.66
2022-08-09T09:07:02.082Z,27.13
2022-08-09T09:09:50.273Z,27.47
2022-08-09T09:12:22.055Z,27.90
2022-08-09T09:14:52.160Z,27.95
2022-08-09T09:17:21.057Z,28.02
2022-08-09T09:19:48.604Z,27.54
2022-08-09T09:22:17.553Z,27.39
2022-08-09T09:26:00.456Z,28.11
2022-08-09T09:28:04.985Z,28.80
2022-08-09T09:30:41.043Z,29.27
2022-08-09T09:33:15.625Z,29.21
2022-08-09T09:36:01.771Z,29.21
2022-08-09T09:38:45.421Z,29.15
2022-08-09T09:41:27.705Z,28.69
2022-08-09T09:44:12.573Z,28.21
2022-08-09T09:46:45.911Z,28.11
2022-08-09T09:49:32.109Z,28.21
2022-08-09T09:52:16.305Z,28.00
2022-08-09T09:55:02.944Z,28.28
2022-08-09T09:58:02.605Z,29.21
2022-08-09T10:00:34.414Z,29.54
2022-08-09T10:03:09.195Z,29.16
2022-08-09T10:06:04.032Z,28.65
2022-08-09T10:08:32.434Z,28.21
2022-08-09T10:12:00.742Z,28.11
2022-08-09T10:14:07.063Z,28.13
2022-08-09T10:16:58.003Z,28.26
2022-08-09T10:19:35.800Z,28.23
2022-08-09T10:22:03.619Z,27.85
2022-08-09T10:24:35.862Z,27.80
2022-08-09T10:27:05.389Z,28.03
2022-08-09T10:30:29.981Z,28.33
2022-08-09T10:32:40.159Z,28.10
2022-08-09T10:35:13.218Z,27.78
2022-08-09T10:37:42.103Z,28.03
2022-08-09T10:40:33.451Z,28.24
2022-08-09T10:43:00.095Z,28.38
2022-08-09T10:45:31.799Z,28.40
2022-08-09T10:48:19.357Z,28.48
2022-08-09T10:51:09.254Z,28.82
2022-08-09T10:53:54.610Z,28.88
2022-08-09T10:56:24.304Z,28.47
2022-08-09T10:58:54.293Z,28.23
2022-08-09T11:03:15.188Z,27.76
2022-08-09T11:04:29.846Z,27.85
2022-08-09T11:07:57.587Z,27.55
2022-08-09T11:10:30.128Z,27.53
2022-08-09T11:13:51.294Z,28.16
2022-08-09T11:16:33.474Z,28.66
2022-08-09T11:19:03.181Z,29.12
2022-08-09T11:21:57.246Z,29.15
2022-08-09T11:25:05.640Z,29.11
2022-08-09T11:28:08.039Z,28.56
2022-08-09T11:30:37.616Z,28.24
2022-08-09T11:33:11.730Z,28.19
2022-08-09T11:35:49.671Z,28.19
2022-08-09T11:38:22.349Z,27.85
2022-08-09T11:40:57.844Z,27.78
2022-08-09T11:43:41.258Z,27.88
2022-08-09T11:46:09.455Z,27.96
2022-08-09T11:48:48.709Z,27.96
2022-08-09T11:51:38.027Z,28.41
2022-08-09T11:54:27.686Z,29.05
2022-08-09T11:57:48.043Z,28.67
2022-08-09T12:00:27.426Z,28.19
2022-08-09T12:02:56.660Z,28.44
2022-08-09T12:05:37.608Z,28.84
2022-08-09T12:08:12.236Z,29.45
2022-08-09T12:10:48.526Z,29.40
2022-08-09T12:14:09.720Z,29.82
2022-08-09T12:16:37.633Z,29.97
2022-08-09T12:19:08.541Z,29.78
2022-08-09T12:21:39.303Z,30.44
2022-08-09T12:24:22.195Z,30.84
2022-08-09T12:28:58.262Z,29.35
2022-08-09T12:29:44.497Z,29.38
2022-08-09T12:32:27.389Z,29.13
2022-08-09T12:35:02.648Z,28.82
2022-08-09T12:37:49.754Z,28.79
2022-08-09T12:40:19.151Z,27.89
2022-08-09T12:42:50.454Z,28.08
2022-08-09T12:45:33.199Z,28.12
2022-08-09T12:48:10.782Z,27.97
2022-08-09T12:50:48.628Z,28.09
2022-08-09T12:53:36.720Z,28.24
2022-08-09T12:56:15.995Z,28.00
2022-08-09T12:59:10.528Z,28.32
2022-08-09T13:01:48.842Z,28.62
2022-08-09T13:04:36.085Z,28.75
2022-08-09T13:07:14.340Z,29.04
2022-08-09T13:09:52.890Z,29.33
2022-08-09T13:12:23.780Z,29.90
2022-08-09T13:14:54.031Z,30.50
2022-08-09T13:18:03.229Z,30.86
2022-08-09T13:20:17.443Z,30.65
2022-08-09T13:23:01.543Z,30.70
2022-08-09T13:25:42.009Z,30.49
2022-08-09T13:28:11.638Z,30.02
2022-08-09T13:32:14.482Z,29.57
2022-08-09T13:33:53.141Z,29.48
2022-08-09T13:36:39.394Z,29.60
2022-08-09T13:41:20.918Z,29.44
2022-08-09T13:42:01.982Z,29.00
2022-08-09T13:44:30.158Z,28.87
2022-08-09T13:47:17.834Z,28.74
2022-08-09T13:49:57.463Z,28.48
2022-08-09T13:52:26.038Z,28.36
2022-08-09T13:55:00.139Z,28.36
2022-08-09T13:57:36.555Z,28.38
2022-08-09T14:00:13.696Z,28.70
2022-08-09T14:03:02.991Z,28.73
2022-08-09T14:05:59.035Z,28.55
2022-08-09T14:08:19.339Z,28.09
2022-08-09T14:10:52.689Z,28.31
2022-08-09T14:14:16.221Z,28.66
2022-08-09T14:16:12.419Z,28.95
2022-08-09T14:18:45.187Z,29.10
2022-08-09T14:21:17.796Z,28.93
2022-08-09T14:23:54.018Z,29.15
2022-08-09T14:26:30.178Z,29.34
2022-08-09T14:29:00.332Z,29.27
2022-08-09T14:31:35.919Z,28.82
2022-08-09T14:34:17.612Z,28.98
2022-08-09T14:36:56.618Z,28.78
2022-08-09T14:39:40.407Z,28.64
2022-08-09T14:42:11.416Z,28.65
2022-08-09T14:44:48.942Z,28.74
2022-08-09T14:47:44.950Z,28.98
2022-08-09T14:50:16.226Z,28.86
2022-08-09T14:52:47.787Z,28.82
2022-08-09T14:55:20.290Z,28.80
2022-08-09T14:57:48.952Z,28.67
2022-08-09T15:00:17.147Z,28.54
2022-08-09T15:02:47.188Z,28.53
2022-08-09T15:05:16.038Z,28.56
2022-08-09T15:07:56.306Z,28.64
2022-08-09T15:10:26.246Z,28.70
2022-08-09T15:12:53.873Z,28.89
2022-08-09T15:15:21.694Z,28.84
2022-08-09T15:17:52.390Z,28.80
2022-08-09T15:21:56.591Z,28.83
2022-08-09T15:24:01.003Z,28.89
2022-08-09T15:25:58.544Z,28.81
2022-08-09T15:28:28.434Z,28.75
2022-08-09T15:31:09.843Z,28.39
2022-08-09T15:34:18.116Z,28.49
2022-08-09T15:36:29.341Z,28.36
2022-08-09T15:38:59.894Z,28.47
2022-08-09T15:41:31.919Z,28.53
2022-08-09T15:43:59.973Z,28.35
2022-08-09T15:46:34.432Z,28.44
2022-08-09T15:49:20.867Z,28.40
2022-08-09T15:52:02.857Z,28.24
2022-08-09T15:54:46.273Z,28.25
2022-08-09T15:57:19.043Z,28.18
2022-08-09T16:00:01.322Z,28.13
2022-08-09T16:02:28.694Z,28.16
2022-08-09T16:04:56.460Z,28.13
2022-08-09T16:07:25.711Z,28.33
2022-08-09T16:10:04.280Z,28.44
2022-08-09T16:12:32.954Z,28.37
2022-08-09T16:15:01.180Z,28.28
2022-08-09T16:17:29.139Z,28.24
2022-08-09T16:20:05.002Z,28.39
2022-08-09T16:22:37.140Z,28.28
2022-08-09T16:25:13.896Z,28.17
2022-08-09T16:27:43.214Z,28.21
2022-08-09T16:30:15.517Z,28.19
2022-08-09T16:33:12.208Z,27.91
2022-08-09T16:35:57.142Z,27.90
2022-08-09T16:38:29.586Z,27.81
2022-08-09T16:40:58.528Z,27.68
2022-08-09T16:43:31.552Z,27.77
2022-08-09T16:45:59.130Z,27.57
2022-08-09T16:48:40.063Z,27.48
2022-08-09T16:51:17.409Z,27.49
2022-08-09T16:56:36.378Z,27.25
2022-08-09T16:59:06.819Z,27.12
2022-08-09T17:01:38.806Z,27.09
2022-08-09T17:04:06.838Z,27.09
2022-08-09T17:07:07.360Z,27.02
2022-08-09T17:09:45.763Z,26.91
2022-08-09T17:12:10.875Z,26.49
2022-08-09T17:14:38.269Z,26.24
2022-08-09T17:17:25.973Z,26.13
2022-08-09T17:20:30.431Z,26.07
2022-08-09T17:22:51.672Z,26.33
2022-08-09T17:25:22.286Z,26.09
2022-08-09T17:27:54.542Z,25.87
2022-08-09T17:30:25.871Z,25.78
2022-08-09T17:32:54.232Z,25.61
2022-08-09T17:35:21.643Z,25.57
2022-08-09T17:38:11.770Z,25.46
2022-08-09T17:40:39.339Z,25.50
2022-08-09T17:43:32.560Z,25.42
2022-08-09T17:46:03.039Z,25.43
2022-08-09T17:48:34.408Z,25.52
2022-08-09T17:51:09.705Z,25.55
2022-08-09T17:53:52.077Z,25.53
2022-08-09T17:56:21.297Z,25.45
2022-08-09T17:58:50.030Z,25.41
2022-08-09T18:01:22.590Z,25.44
2022-08-09T18:03:51.043Z,25.32
2022-08-09T18:06:31.021Z,25.33
2022-08-09T18:09:01.979Z,25.19
2022-08-09T18:11:32.166Z,25.25
2022-08-09T18:14:21.395Z,25.19
2022-08-09T18:16:49.710Z,25.11
2022-08-09T18:20:56.591Z,25.17
2022-08-09T18:22:06.072Z,25.30
2022-08-09T18:24:41.051Z,25.31
2022-08-09T18:27:10.100Z,25.65
2022-08-09T18:30:38.746Z,25.71
2022-08-09T18:32:30.248Z,25.88
2022-08-09T18:34:57.724Z,25.89
2022-08-09T18:37:49.098Z,25.81
2022-08-09T18:40:12.702Z,25.86
2022-08-09T18:42:40.113Z,25.43
2022-08-09T18:45:21.618Z,25.47
2022-08-09T18:48:00.425Z,25.24
2022-08-09T18:50:33.682Z,24.91
2022-08-09T18:53:01.452Z,24.71
2022-08-09T18:55:56.586Z,24.40
2022-08-09T18:58:31.821Z,24.17
2022-08-09T19:01:01.141Z,23.89
2022-08-09T19:03:28.913Z,23.60
2022-08-09T19:06:03.408Z,23.39
2022-08-09T19:08:32.322Z,23.24
2022-08-09T19:10:59.770Z,23.21
2022-08-09T19:13:37.984Z,22.94
2022-08-09T19:16:20.849Z,22.76
2022-08-09T19:18:48.689Z,22.76
2022-08-09T19:21:18.891Z,22.73
2022-08-09T19:24:33.078Z,22.57
2022-08-09T19:26:37.578Z,22.45
2022-08-09T19:29:15.138Z,22.40
2022-08-09T19:31:49.693Z,22.18
2022-08-09T19:34:22.624Z,22.12
2022-08-09T19:36:52.879Z,22.02
2022-08-09T19:39:43.060Z,22.00
2022-08-09T19:42:09.170Z,21.85
2022-08-09T19:44:43.144Z,21.86
2022-08-09T19:47:11.880Z,21.84
2022-08-09T19:50:10.077Z,21.89
2022-08-09T19:52:28.607Z,21.95
2022-08-09T19:54:56.085Z,21.98
2022-08-09T19:57:26.428Z,22.03
2022-08-09T19:59:59.319Z,21.96
2022-08-09T20:04:10.933Z,21.99
2022-08-09T20:05:23.635Z,22.07
2022-08-09T20:07:59.813Z,22.00
2022-08-09T20:10:34.294Z,22.06
2022-08-09T20:13:04.719Z,21.97
2022-08-09T20:16:37.682Z,21.72
2022-08-09T20:18:22.777Z,21.73
2022-08-09T20:20:56.363Z,21.63
2022-08-09T20:23:25.535Z,21.48
2022-08-09T20:26:07.247Z,21.53
2022-08-09T20:28:47.577Z,21.38
2022-08-09T20:31:16.550Z,21.20
2022-08-09T20:33:45.820Z,21.24
2022-08-09T20:36:14.189Z,21.16
2022-08-09T20:39:28.581Z,21.08
2022-08-09T20:41:35.474Z,20.82
2022-08-09T20:44:10.075Z,20.64
2022-08-09T20:46:43.374Z,20.38
2022-08-09T20:49:15.730Z,20.41
2022-08-09T20:51:44.019Z,20.53
2022-08-09T20:54:16.418Z,20.64
2022-08-09T20:56:46.780Z,20.61
2022-08-09T20:59:17.261Z,20.63
2022-08-09T21:01:50.870Z,20.56
2022-08-09T21:05:53.626Z,20.36
2022-08-09T21:07:11.414Z,20.35
2022-08-09T21:09:45.176Z,20.33
2022-08-09T21:14:48.393Z,20.39
2022-08-09T21:18:23.296Z,20.40
2022-08-09T21:20:22.165Z,20.33
2022-08-09T21:22:54.851Z,20.36
2022-08-09T21:25:44.334Z,20.43
2022-08-09T21:28:35.094Z,20.37
2022-08-09T21:31:13.565Z,20.38
2022-08-09T21:33:45.942Z,20.25
2022-08-09T21:36:25.912Z,20.32
2022-08-09T21:38:57.459Z,20.17
2022-08-09T21:42:03.690Z,20.07
2022-08-09T21:44:15.387Z,19.94
2022-08-09T21:47:01.923Z,19.88
2022-08-09T21:49:29.385Z,19.84
2022-08-09T21:52:15.100Z,19.92
2022-08-09T21:54:46.381Z,19.84
2022-08-09T21:57:37.314Z,19.70
2022-08-09T22:00:09.517Z,19.76
2022-08-09T22:02:38.020Z,19.69
2022-08-09T22:05:17.150Z,19.60
2022-08-09T22:07:53.103Z,19.51
2022-08-09T22:10:23.171Z,19.35
2022-08-09T22:12:52.353Z,19.32
2022-08-09T22:15:33.259Z,19.33
2022-08-09T22:18:02.453Z,19.24
2022-08-09T22:20:31.347Z,19.54
2022-08-09T22:23:00.419Z,19.30
2022-08-09T22:26:05.558Z,19.28
2022-08-09T22:28:21.033Z,19.88
2022-08-09T22:30:59.710Z,20.03
2022-08-09T22:33:37.641Z,19.73
2022-08-09T22:36:14.445Z,19.56
2022-08-09T22:38:48.658Z,19.14
2022-08-09T22:41:16.291Z,18.92
2022-08-09T22:44:01.472Z,18.97
2022-08-09T22:48:17.817Z,18.99
2022-08-09T22:49:17.810Z,18.98
2022-08-09T22:51:56.509Z,18.92
2022-08-09T22:54:27.500Z,18.61
2022-08-09T22:56:57.056Z,18.41
2022-08-09T22:59:56.857Z,18.52
2022-08-09T23:02:15.632Z,18.66
2022-08-09T23:04:53.854Z,18.67
2022-08-09T23:08:23.173Z,18.65
2022-08-09T23:10:29.193Z,18.44
2022-08-09T23:12:56.727Z,18.32
2022-08-09T23:15:24.176Z,18.50
2022-08-09T23:17:51.588Z,18.51
2022-08-09T23:20:19.130Z,18.73
2022-08-09T23:22:46.550Z,18.56
2022-08-09T23:25:14.215Z,18.45
2022-08-09T23:27:59.677Z,18.39
2022-08-09T23:30:31.094Z,18.40
2022-08-09T23:32:58.460Z,18.44
2022-08-09T23:35:25.928Z,18.28
2022-08-09T23:37:53.336Z,18.16
2022-08-09T23:40:20.894Z,17.82
2022-08-09T23:42:49.674Z,17.81
2022-08-09T23:45:37.060Z,17.85
2022-08-09T23:48:08.943Z,17.84
2022-08-09T23:50:36.719Z,17.82
2022-08-09T23:53:04.478Z,17.82
2022-08-09T23:55:33.028Z,17.81
2022-08-09T23:58:10.382Z,17.82
